createdAt,value
2023-01-27T00:00:02.851Z,51.323460
2023-01-27T00:01:02.833Z,51.323456
2023-01-27T00:02:02.833Z,51.323437
2023-01-27T00:03:02.819Z,51.323448
2023-01-27T00:04:02.834Z,51.323448
2023-01-27T00:05:02.763Z,51.323433
2023-01-27T00:06:02.745Z,51.323425
2023-01-27T00:07:02.733Z,51.323437
2023-01-27T00:08:02.706Z,51.323437
2023-01-27T00:09:02.717Z,51.323418
2023-01-27T00:10:02.669Z,51.323421
2023-01-27T00:11:02.648Z,51.323437
2023-01-27T00:12:02.629Z,51.323456
2023-01-27T00:13:02.623Z,51.323456
2023-01-27T00:14:02.617Z,51.323452
2023-01-27T00:15:02.579Z,51.323448
2023-01-27T00:16:02.676Z,51.323448
2023-01-27T00:17:02.540Z,51.323441
2023-01-27T00:18:02.526Z,51.323444
2023-01-27T00:19:02.525Z,51.323448
2023-01-27T00:20:03.931Z,51.323448
2023-01-27T00:21:03.468Z,51.323456
2023-01-27T00:22:02.456Z,51.323467
2023-01-27T00:23:02.430Z,51.323471
2023-01-27T00:24:02.460Z,51.323448
2023-01-27T00:25:02.391Z,51.323441
2023-01-27T00:26:02.374Z,51.323433
2023-01-27T00:27:02.357Z,51.323437
2023-01-27T00:28:02.342Z,51.323437
2023-01-27T00:29:02.373Z,51.323425
2023-01-27T00:30:02.311Z,51.323433
2023-01-27T00:31:02.373Z,51.323425
2023-01-27T00:32:02.268Z,51.323418
2023-01-27T00:33:02.249Z,51.323395
2023-01-27T00:34:02.273Z,51.323433
2023-01-27T00:35:02.210Z,51.323444
2023-01-27T00:36:02.198Z,51.323452
2023-01-27T00:37:02.170Z,51.323437
2023-01-27T00:38:02.157Z,51.323429
2023-01-27T00:39:02.170Z,51.323441
2023-01-27T00:40:02.119Z,51.323441
2023-01-27T00:41:02.099Z,51.323441
2023-01-27T00:42:02.084Z,51.323441
2023-01-27T00:43:02.074Z,51.323418
2023-01-27T00:44:02.078Z,51.323448
2023-01-27T00:45:02.033Z,51.323460
2023-01-27T00:46:02.015Z,51.323463
2023-01-27T00:47:02.005Z,51.323463
2023-01-27T00:48:01.975Z,51.323479
2023-01-27T00:49:01.963Z,51.323486
2023-01-27T00:50:01.988Z,51.323479
2023-01-27T00:51:01.928Z,51.323475
2023-01-27T00:52:01.919Z,51.323441
2023-01-27T00:53:01.881Z,51.323421
2023-01-27T00:54:01.869Z,51.323456
2023-01-27T00:55:01.873Z,51.323524
2023-01-27T00:56:01.832Z,51.323502
2023-01-27T00:57:01.815Z,51.323463
2023-01-27T00:58:01.790Z,51.323456
2023-01-27T00:59:01.773Z,51.323452
2023-01-27T01:00:01.805Z,51.323452
2023-01-27T01:01:01.765Z,51.323471
2023-01-27T01:02:01.848Z,51.323483
2023-01-27T01:03:01.757Z,51.323467
2023-01-27T01:04:01.684Z,51.323463
2023-01-27T01:05:01.691Z,51.323471
2023-01-27T01:06:01.646Z,51.323471
2023-01-27T01:07:01.628Z,51.323448
2023-01-27T01:08:01.613Z,51.323433
2023-01-27T01:09:01.616Z,51.323460
2023-01-27T01:10:01.619Z,51.323479
2023-01-27T01:11:01.571Z,51.323463
2023-01-27T01:12:01.564Z,51.323441
2023-01-27T01:13:01.541Z,51.323448
2023-01-27T01:14:01.511Z,51.323479
2023-01-27T01:15:01.525Z,51.323452
2023-01-27T01:16:01.506Z,51.323460
2023-01-27T01:17:01.443Z,51.323452
2023-01-27T01:18:01.438Z,51.323456
2023-01-27T01:19:01.423Z,51.323494
2023-01-27T01:20:01.426Z,51.323475
2023-01-27T01:21:01.377Z,51.323441
2023-01-27T01:22:01.350Z,51.323452
2023-01-27T01:23:01.331Z,51.323483
2023-01-27T01:24:01.348Z,51.323456
2023-01-27T01:25:01.320Z,51.323460
2023-01-27T01:26:01.278Z,51.323471
2023-01-27T01:27:01.260Z,51.323475
2023-01-27T01:28:01.259Z,51.323444
2023-01-27T01:29:01.231Z,51.323456
2023-01-27T01:30:01.239Z,51.323452
2023-01-27T01:31:01.288Z,51.323437
2023-01-27T01:32:01.175Z,51.323452
2023-01-27T01:33:01.158Z,51.323452
2023-01-27T01:34:01.137Z,51.323463
2023-01-27T01:35:01.153Z,51.323475
2023-01-27T01:36:01.101Z,51.323452
2023-01-27T01:37:01.082Z,51.323460
2023-01-27T01:38:01.062Z,51.323463
2023-01-27T01:39:01.043Z,51.323456
2023-01-27T01:40:01.052Z,51.323483
2023-01-27T01:41:01.004Z,51.323444
2023-01-27T01:42:00.983Z,51.323448
2023-01-27T01:43:00.964Z,51.323410
2023-01-27T01:44:00.947Z,51.323429
2023-01-27T01:45:00.956Z,51.323433
2023-01-27T01:46:00.924Z,51.323444
2023-01-27T01:47:00.888Z,51.323433
2023-01-27T01:48:00.868Z,51.323452
2023-01-27T01:49:00.865Z,51.323448
2023-01-27T01:50:00.862Z,51.323441
2023-01-27T01:51:00.822Z,51.323444
2023-01-27T01:52:00.797Z,51.323437
2023-01-27T01:53:00.785Z,51.323448
2023-01-27T01:54:00.764Z,51.323463
2023-01-27T01:55:00.773Z,51.323475
2023-01-27T01:56:00.727Z,51.323437
2023-01-27T01:57:00.708Z,51.323444
2023-01-27T01:58:00.688Z,51.323463
2023-01-27T01:59:00.671Z,51.323437
2023-01-27T02:00:00.677Z,51.323425
2023-01-27T02:01:00.652Z,51.323452
2023-01-27T02:02:00.691Z,51.323421
2023-01-27T02:03:00.630Z,51.323448
2023-01-27T02:04:00.583Z,51.323444
2023-01-27T02:05:00.580Z,51.323441
2023-01-27T02:06:00.535Z,51.323463
2023-01-27T02:07:00.521Z,51.323418
2023-01-27T02:08:00.507Z,51.323429
2023-01-27T02:09:00.484Z,51.323441
2023-01-27T02:10:00.495Z,51.323425
2023-01-27T02:11:00.462Z,51.323444
2023-01-27T02:12:00.430Z,51.323471
2023-01-27T02:13:00.413Z,51.323463
2023-01-27T02:14:00.397Z,51.323448
2023-01-27T02:15:00.405Z,51.323429
2023-01-27T02:16:00.387Z,51.323433
2023-01-27T02:17:00.345Z,51.323406
2023-01-27T02:18:00.321Z,51.323467
2023-01-27T02:19:00.304Z,51.323460
2023-01-27T02:20:00.315Z,51.323483
2023-01-27T02:21:00.275Z,51.323429
2023-01-27T02:22:00.250Z,51.323456
2023-01-27T02:23:00.231Z,51.323410
2023-01-27T02:24:00.251Z,51.323437
2023-01-27T02:25:00.221Z,51.323502
2023-01-27T02:26:00.175Z,51.323452
2023-01-27T02:27:00.159Z,51.323437
2023-01-27T02:28:00.157Z,51.323433
2023-01-27T02:29:00.138Z,51.323376
2023-01-27T02:30:00.201Z,51.323406
2023-01-27T02:31:00.225Z,51.323441
2023-01-27T02:32:00.093Z,51.323406
2023-01-27T02:33:00.063Z,51.323444
2023-01-27T02:34:00.034Z,51.323402
2023-01-27T02:35:00.039Z,51.323429
2023-01-27T02:36:00.031Z,51.323383
2023-01-27T02:36:59.975Z,51.323299
2023-01-27T02:37:59.960Z,51.323372
2023-01-27T02:38:59.937Z,51.323399
2023-01-27T02:39:59.952Z,51.323444
2023-01-27T02:40:59.909Z,51.323383
2023-01-27T02:41:59.885Z,51.323368
2023-01-27T02:42:59.869Z,51.323330
2023-01-27T02:43:59.856Z,51.323318
2023-01-27T02:44:59.859Z,51.323341
2023-01-27T02:45:59.832Z,51.323353
2023-01-27T02:46:59.802Z,51.323395
2023-01-27T02:47:59.780Z,51.323421
2023-01-27T02:48:59.757Z,51.323410
2023-01-27T02:49:59.767Z,51.323376
2023-01-27T02:50:59.729Z,51.323376
2023-01-27T02:51:59.709Z,51.323364
2023-01-27T02:52:59.689Z,51.323372
2023-01-27T02:53:59.681Z,51.323391
2023-01-27T02:54:59.688Z,51.323376
2023-01-27T02:55:59.636Z,51.323380
2023-01-27T02:56:59.610Z,51.323471
2023-01-27T02:57:59.595Z,51.323460
2023-01-27T02:58:59.577Z,51.323406
2023-01-27T02:59:59.576Z,51.323360
2023-01-27T03:00:59.540Z,51.323372
2023-01-27T03:01:59.519Z,51.323338
2023-01-27T03:02:59.506Z,51.323383
2023-01-27T03:03:59.485Z,51.323410
2023-01-27T03:04:59.492Z,51.323414
2023-01-27T03:05:59.449Z,51.323410
2023-01-27T03:06:59.434Z,51.323414
2023-01-27T03:07:59.412Z,51.323418
2023-01-27T03:08:59.397Z,51.323441
2023-01-27T03:09:59.405Z,51.323441
2023-01-27T03:10:59.360Z,51.323448
2023-01-27T03:11:59.448Z,51.323475
2023-01-27T03:12:59.324Z,51.323452
2023-01-27T03:13:59.307Z,51.323460
2023-01-27T03:14:59.310Z,51.323421
2023-01-27T03:15:59.309Z,51.323421
2023-01-27T03:16:59.252Z,51.323387
2023-01-27T03:17:59.225Z,51.323345
2023-01-27T03:18:59.206Z,51.323357
2023-01-27T03:19:59.219Z,51.323383
2023-01-27T03:20:59.168Z,51.323380
2023-01-27T03:21:59.182Z,51.323284
2023-01-27T03:22:59.136Z,51.323292
2023-01-27T03:23:59.153Z,51.323311
2023-01-27T03:24:59.126Z,51.323524
2023-01-27T03:25:59.092Z,51.323380
2023-01-27T03:26:59.060Z,51.323364
2023-01-27T03:27:59.042Z,51.323330
2023-01-27T03:28:59.022Z,51.323292
2023-01-27T03:29:59.026Z,51.323326
2023-01-27T03:30:59.054Z,51.323254
2023-01-27T03:31:59.031Z,51.323322
2023-01-27T03:32:59.438Z,51.323273
2023-01-27T03:33:58.929Z,51.323299
2023-01-27T03:34:58.939Z,51.323296
2023-01-27T03:35:58.897Z,51.323387
2023-01-27T03:36:58.873Z,51.323429
2023-01-27T03:37:58.856Z,51.323399
2023-01-27T03:38:58.831Z,51.323448
2023-01-27T03:39:58.840Z,51.323414
2023-01-27T03:40:58.793Z,51.323421
2023-01-27T03:41:58.791Z,51.323421
2023-01-27T03:42:58.768Z,51.323429
2023-01-27T03:43:58.744Z,51.323425
2023-01-27T03:44:58.745Z,51.323421
2023-01-27T03:45:58.761Z,51.323406
2023-01-27T03:46:58.683Z,51.323414
2023-01-27T03:47:58.688Z,51.323418
2023-01-27T03:48:58.647Z,51.323395
2023-01-27T03:49:58.651Z,51.323418
2023-01-27T03:50:58.607Z,51.323387
2023-01-27T03:51:58.583Z,51.323418
2023-01-27T03:52:58.571Z,51.323433
2023-01-27T03:53:58.550Z,51.323441
2023-01-27T03:54:58.531Z,51.323425
2023-01-27T03:55:58.547Z,51.323406
2023-01-27T03:56:58.491Z,51.323421
2023-01-27T03:57:59.475Z,51.323433
2023-01-27T03:58:58.455Z,51.323414
2023-01-27T03:59:58.437Z,51.323433
2023-01-27T04:00:58.448Z,51.323418
2023-01-27T04:01:58.404Z,51.323429
2023-01-27T04:02:58.408Z,51.323433
2023-01-27T04:03:58.372Z,51.323425
2023-01-27T04:04:58.367Z,51.323414
2023-01-27T04:05:58.361Z,51.323433
2023-01-27T04:06:58.331Z,51.323410
2023-01-27T04:07:58.324Z,51.323421
2023-01-27T04:08:58.276Z,51.323425
2023-01-27T04:09:58.256Z,51.323433
2023-01-27T04:10:58.268Z,51.323433
2023-01-27T04:11:58.228Z,51.323433
2023-01-27T04:12:58.208Z,51.323421
2023-01-27T04:13:58.186Z,51.323429
2023-01-27T04:14:58.167Z,51.323444
2023-01-27T04:15:58.237Z,51.323448
2023-01-27T04:16:58.133Z,51.323410
2023-01-27T04:17:58.112Z,51.323429
2023-01-27T04:18:58.101Z,51.323414
2023-01-27T04:19:58.073Z,51.323433
2023-01-27T04:20:58.079Z,51.323410
2023-01-27T04:21:58.037Z,51.323410
2023-01-27T04:22:58.021Z,51.323418
2023-01-27T04:23:58.100Z,51.323421
2023-01-27T04:24:57.985Z,51.323433
2023-01-27T04:25:57.991Z,51.323444
2023-01-27T04:26:57.973Z,51.323414
2023-01-27T04:27:57.931Z,51.323418
2023-01-27T04:28:57.919Z,51.323421
2023-01-27T04:29:57.895Z,51.323421
2023-01-27T04:30:57.922Z,51.323433
2023-01-27T04:31:58.051Z,51.323425
2023-01-27T04:32:57.839Z,51.323418
2023-01-27T04:33:57.821Z,51.323421
2023-01-27T04:34:57.813Z,51.323425
2023-01-27T04:35:57.805Z,51.323395
2023-01-27T04:36:57.780Z,51.323414
2023-01-27T04:37:57.745Z,51.323421
2023-01-27T04:38:57.735Z,51.323414
2023-01-27T04:39:57.712Z,51.323425
2023-01-27T04:40:57.722Z,51.323433
2023-01-27T04:41:57.685Z,51.323425
2023-01-27T04:42:57.666Z,51.323441
2023-01-27T04:43:57.635Z,51.323467
2023-01-27T04:44:57.614Z,51.323410
2023-01-27T04:45:57.710Z,51.323414
2023-01-27T04:46:57.588Z,51.323433
2023-01-27T04:47:57.586Z,51.323425
2023-01-27T04:48:57.546Z,51.323429
2023-01-27T04:49:57.523Z,51.323433
2023-01-27T04:50:57.538Z,51.323402
2023-01-27T04:51:57.491Z,51.323410
2023-01-27T04:52:57.469Z,51.323437
2023-01-27T04:53:57.457Z,51.323448
2023-01-27T04:54:57.437Z,51.323433
2023-01-27T04:55:57.441Z,51.323456
2023-01-27T04:56:57.413Z,51.323433
2023-01-27T04:57:57.382Z,51.323448
2023-01-27T04:58:57.365Z,51.323406
2023-01-27T04:59:57.340Z,51.323429
2023-01-27T05:00:57.354Z,51.323425
2023-01-27T05:01:57.347Z,51.323418
2023-01-27T05:02:58.511Z,51.323418
2023-01-27T05:03:57.274Z,51.323410
2023-01-27T05:04:57.260Z,51.323437
2023-01-27T05:05:57.260Z,51.323433
2023-01-27T05:06:57.217Z,51.323456
2023-01-27T05:07:57.199Z,51.323418
2023-01-27T05:08:57.175Z,51.323437
2023-01-27T05:09:57.160Z,51.323410
2023-01-27T05:10:57.167Z,51.323406
2023-01-27T05:11:57.127Z,51.323410
2023-01-27T05:12:57.104Z,51.323406
2023-01-27T05:13:57.078Z,51.323414
2023-01-27T05:14:58.065Z,51.323418
2023-01-27T05:15:57.127Z,51.323425
2023-01-27T05:16:57.067Z,51.323425
2023-01-27T05:17:57.007Z,51.323414
2023-01-27T05:18:57.997Z,51.323315
2023-01-27T05:19:56.973Z,51.323376
2023-01-27T05:20:56.988Z,51.323402
2023-01-27T05:21:56.952Z,51.323399
2023-01-27T05:22:56.929Z,51.323437
2023-01-27T05:23:56.958Z,51.323437
2023-01-27T05:24:56.882Z,51.323410
2023-01-27T05:25:56.887Z,51.323414
2023-01-27T05:26:56.854Z,51.323410
2023-01-27T05:27:56.825Z,51.323414
2023-01-27T05:28:56.812Z,51.323433
2023-01-27T05:29:56.791Z,51.323425
2023-01-27T05:30:56.907Z,51.323441
2023-01-27T05:31:56.816Z,51.323444
2023-01-27T05:32:56.741Z,51.323429
2023-01-27T05:33:56.717Z,51.323471
2023-01-27T05:34:56.703Z,51.323483
2023-01-27T05:35:56.712Z,51.323467
2023-01-27T05:36:56.665Z,51.323463
2023-01-27T05:37:56.652Z,51.323456
2023-01-27T05:38:56.665Z,51.323456
2023-01-27T05:39:56.618Z,51.323437
2023-01-27T05:40:56.621Z,51.323448
2023-01-27T05:41:56.573Z,51.323444
2023-01-27T05:42:56.559Z,51.323444
2023-01-27T05:43:56.544Z,51.323441
2023-01-27T05:44:56.517Z,51.323456
2023-01-27T05:45:56.523Z,51.323509
2023-01-27T05:46:56.479Z,51.323483
2023-01-27T05:47:56.456Z,51.323437
2023-01-27T05:48:56.448Z,51.323463
2023-01-27T05:49:56.426Z,51.323505
2023-01-27T05:50:56.431Z,51.323483
2023-01-27T05:51:56.389Z,51.323483
2023-01-27T05:52:56.380Z,51.323490
2023-01-27T05:53:56.354Z,51.323467
2023-01-27T05:54:56.336Z,51.323467
2023-01-27T05:55:56.351Z,51.323494
2023-01-27T05:56:56.491Z,51.323463
2023-01-27T05:57:56.280Z,51.323460
2023-01-27T05:58:56.276Z,51.323483
2023-01-27T05:59:56.245Z,51.323448
2023-01-27T06:00:56.294Z,51.323437
2023-01-27T06:01:56.234Z,51.323463
2023-01-27T06:02:56.226Z,51.323456
2023-01-27T06:03:56.181Z,51.323471
2023-01-27T06:04:56.157Z,51.323475
2023-01-27T06:05:56.168Z,51.323483
2023-01-27T06:06:56.119Z,51.323460
2023-01-27T06:07:57.648Z,51.323444
2023-01-27T06:08:57.079Z,51.323441
2023-01-27T06:09:56.063Z,51.323433
2023-01-27T06:10:56.073Z,51.323441
2023-01-27T06:11:56.031Z,51.323483
2023-01-27T06:12:56.015Z,51.323483
2023-01-27T06:13:56.007Z,51.323452
2023-01-27T06:14:55.973Z,51.323441
2023-01-27T06:15:55.998Z,51.323471
2023-01-27T06:16:55.940Z,51.323486
2023-01-27T06:17:55.915Z,51.323452
2023-01-27T06:18:55.935Z,51.323448
2023-01-27T06:19:55.879Z,51.323444
2023-01-27T06:20:55.904Z,51.323444
2023-01-27T06:21:55.846Z,51.323460
2023-01-27T06:22:55.924Z,51.323425
2023-01-27T06:23:56.820Z,51.323418
2023-01-27T06:24:55.789Z,51.323479
2023-01-27T06:25:55.801Z,51.323456
2023-01-27T06:26:55.851Z,51.323429
2023-01-27T06:27:55.733Z,51.323475
2023-01-27T06:28:55.730Z,51.323471
2023-01-27T06:29:55.700Z,51.323421
2023-01-27T06:30:55.719Z,51.323460
2023-01-27T06:31:55.712Z,51.323437
2023-01-27T06:32:55.648Z,51.323456
2023-01-27T06:33:55.629Z,51.323433
2023-01-27T06:34:55.602Z,51.323460
2023-01-27T06:35:55.584Z,51.323448
2023-01-27T06:36:55.611Z,51.323467
2023-01-27T06:37:55.551Z,51.323463
2023-01-27T06:38:55.539Z,51.323444
2023-01-27T06:39:55.507Z,51.323460
2023-01-27T06:40:55.522Z,51.323467
2023-01-27T06:41:55.504Z,51.323486
2023-01-27T06:42:55.463Z,51.323475
2023-01-27T06:43:55.445Z,51.323456
2023-01-27T06:44:55.439Z,51.323471
2023-01-27T06:45:55.424Z,51.323437
2023-01-27T06:46:55.415Z,51.323463
2023-01-27T06:47:55.378Z,51.323467
2023-01-27T06:48:55.346Z,51.323483
2023-01-27T06:49:55.345Z,51.323463
2023-01-27T06:50:55.314Z,51.323475
2023-01-27T06:51:55.324Z,51.323494
2023-01-27T06:52:55.273Z,51.323471
2023-01-27T06:53:55.253Z,51.323463
2023-01-27T06:54:55.241Z,51.323448
2023-01-27T06:55:55.220Z,51.323460
2023-01-27T06:56:55.229Z,51.323490
2023-01-27T06:57:55.192Z,51.323490
2023-01-27T06:58:55.164Z,51.323456
2023-01-27T06:59:55.148Z,51.323448
2023-01-27T07:00:55.126Z,51.323456
2023-01-27T07:01:55.130Z,51.323479
2023-01-27T07:02:55.156Z,51.323441
2023-01-27T07:03:55.071Z,51.323448
2023-01-27T07:04:55.057Z,51.323502
2023-01-27T07:05:55.035Z,51.323467
2023-01-27T07:06:55.054Z,51.323444
2023-01-27T07:07:55.003Z,51.323463
2023-01-27T07:08:55.667Z,51.323448
2023-01-27T07:09:54.987Z,51.323437
2023-01-27T07:10:54.964Z,51.323395
2023-01-27T07:11:54.951Z,51.323421
2023-01-27T07:12:54.907Z,51.323437
2023-01-27T07:13:54.889Z,51.323414
2023-01-27T07:14:54.889Z,51.323418
2023-01-27T07:15:54.942Z,51.323395
2023-01-27T07:16:54.862Z,51.323357
2023-01-27T07:17:54.820Z,51.323418
2023-01-27T07:18:54.804Z,51.323372
2023-01-27T07:19:54.790Z,51.323418
2023-01-27T07:20:54.762Z,51.323452
2023-01-27T07:21:54.770Z,51.323421
2023-01-27T07:22:54.731Z,51.323441
2023-01-27T07:23:54.769Z,51.323406
2023-01-27T07:24:54.688Z,51.323425
2023-01-27T07:25:54.671Z,51.323414
2023-01-27T07:26:54.690Z,51.323437
2023-01-27T07:27:54.637Z,51.323421
2023-01-27T07:28:54.620Z,51.323414
2023-01-27T07:29:54.604Z,51.323425
2023-01-27T07:30:54.638Z,51.323406
2023-01-27T07:31:55.595Z,51.323406
2023-01-27T07:32:54.559Z,51.323421
2023-01-27T07:33:54.536Z,51.323414
2023-01-27T07:34:54.514Z,51.323414
2023-01-27T07:35:54.526Z,51.323429
2023-01-27T07:36:54.502Z,51.323406
2023-01-27T07:37:54.459Z,51.323402
2023-01-27T07:38:54.457Z,51.323410
2023-01-27T07:39:54.428Z,51.323418
2023-01-27T07:40:54.403Z,51.323444
2023-01-27T07:41:54.426Z,51.323441
2023-01-27T07:42:54.372Z,51.323399
2023-01-27T07:43:54.351Z,51.323421
2023-01-27T07:44:54.330Z,51.323425
2023-01-27T07:45:54.348Z,51.323414
2023-01-27T07:46:54.328Z,51.323429
2023-01-27T07:47:54.280Z,51.323387
2023-01-27T07:48:54.261Z,51.323414
2023-01-27T07:49:54.243Z,51.323421
2023-01-27T07:50:54.255Z,51.323437
2023-01-27T07:51:54.295Z,51.323410
2023-01-27T07:52:54.190Z,51.323410
2023-01-27T07:53:54.171Z,51.323441
2023-01-27T07:54:54.183Z,51.323418
2023-01-27T07:55:54.132Z,51.323444
2023-01-27T07:56:54.142Z,51.323425
2023-01-27T07:57:54.099Z,51.323421
2023-01-27T07:58:54.078Z,51.323414
2023-01-27T07:59:54.062Z,51.323421
2023-01-27T08:00:54.082Z,51.323429
2023-01-27T08:01:54.055Z,51.323429
2023-01-27T08:02:54.087Z,51.323402
2023-01-27T08:03:54.015Z,51.323406
2023-01-27T08:04:54.051Z,51.323410
2023-01-27T08:05:53.953Z,51.323418
2023-01-27T08:06:53.958Z,51.323414
2023-01-27T08:07:53.917Z,51.323429
2023-01-27T08:08:53.902Z,51.323437
2023-01-27T08:09:54.894Z,51.323444
2023-01-27T08:10:53.863Z,51.323425
2023-01-27T08:11:53.867Z,51.323406
2023-01-27T08:12:53.914Z,51.323406
2023-01-27T08:13:53.804Z,51.323410
2023-01-27T08:14:53.789Z,51.323448
2023-01-27T08:15:53.770Z,51.323418
2023-01-27T08:16:53.853Z,51.323418
2023-01-27T08:17:53.737Z,51.323421
2023-01-27T08:18:53.725Z,51.323421
2023-01-27T08:19:53.697Z,51.323406
2023-01-27T08:20:53.676Z,51.323456
2023-01-27T08:21:54.683Z,51.323421
2023-01-27T08:22:53.644Z,51.323380
2023-01-27T08:23:53.663Z,51.323421
2023-01-27T08:24:53.610Z,51.323456
2023-01-27T08:25:53.581Z,51.323433
2023-01-27T08:26:53.589Z,51.323418
2023-01-27T08:27:53.554Z,51.323402
2023-01-27T08:28:53.526Z,51.323418
2023-01-27T08:29:53.510Z,51.323421
2023-01-27T08:30:53.511Z,51.323395
2023-01-27T08:31:53.546Z,51.323406
2023-01-27T08:32:53.449Z,51.323399
2023-01-27T08:33:53.437Z,51.323425
2023-01-27T08:34:53.419Z,51.323418
2023-01-27T08:35:53.399Z,51.323425
2023-01-27T08:36:53.406Z,51.323383
2023-01-27T08:37:53.362Z,51.323395
2023-01-27T08:38:53.354Z,51.323395
2023-01-27T08:39:53.323Z,51.323425
2023-01-27T08:40:53.312Z,51.323402
2023-01-27T08:41:53.315Z,51.323360
2023-01-27T08:42:53.265Z,51.323322
2023-01-27T08:43:53.253Z,51.323429
2023-01-27T08:44:53.230Z,51.323429
2023-01-27T08:45:54.236Z,51.323380
2023-01-27T08:46:53.227Z,51.323456
2023-01-27T08:47:53.182Z,51.323441
2023-01-27T08:48:53.161Z,51.323437
2023-01-27T08:49:53.142Z,51.323406
2023-01-27T08:50:53.120Z,51.323395
2023-01-27T08:51:53.133Z,51.323410
2023-01-27T08:52:53.090Z,51.323395
2023-01-27T08:53:53.077Z,51.323429
2023-01-27T08:54:53.045Z,51.323437
2023-01-27T08:55:53.034Z,51.323391
2023-01-27T08:56:53.040Z,51.323437
2023-01-27T08:57:53.017Z,51.323479
2023-01-27T08:58:52.990Z,51.323368
2023-01-27T08:59:52.959Z,51.323345
2023-01-27T09:00:52.950Z,51.323410
2023-01-27T09:01:52.945Z,51.323437
2023-01-27T09:02:52.905Z,51.323456
2023-01-27T09:03:52.884Z,51.323399
2023-01-27T09:04:52.913Z,51.323418
2023-01-27T09:05:52.843Z,51.323387
2023-01-27T09:06:52.858Z,51.323441
2023-01-27T09:07:52.811Z,51.323444
2023-01-27T09:08:52.807Z,51.323414
2023-01-27T09:10:04.204Z,51.323425
2023-01-27T09:10:53.759Z,51.323444
2023-01-27T09:11:52.760Z,51.323448
2023-01-27T09:12:52.719Z,51.323387
2023-01-27T09:13:52.702Z,51.323421
2023-01-27T09:14:52.681Z,51.323452
2023-01-27T09:15:52.722Z,51.323452
2023-01-27T09:16:52.672Z,51.323456
2023-01-27T09:17:52.626Z,51.323441
2023-01-27T09:18:52.612Z,51.323421
2023-01-27T09:19:52.591Z,51.323303
2023-01-27T09:20:52.571Z,51.323418
2023-01-27T09:21:52.591Z,51.323433
2023-01-27T09:22:52.533Z,51.323391
2023-01-27T09:23:52.573Z,51.323433
2023-01-27T09:24:52.494Z,51.323463
2023-01-27T09:25:52.476Z,51.323460
2023-01-27T09:26:52.481Z,51.323441
2023-01-27T09:27:52.445Z,51.323425
2023-01-27T09:28:52.424Z,51.323410
2023-01-27T09:29:52.401Z,51.323399
2023-01-27T09:30:52.422Z,51.323380
2023-01-27T09:31:52.710Z,51.323429
2023-01-27T09:32:52.356Z,51.323471
2023-01-27T09:33:52.813Z,51.323456
2023-01-27T09:34:52.527Z,51.323444
2023-01-27T09:35:52.527Z,51.323399
2023-01-27T09:36:52.561Z,51.323410
2023-01-27T09:37:52.249Z,51.323433
2023-01-27T09:38:52.442Z,51.323429
2023-01-27T09:39:52.309Z,51.323391
2023-01-27T09:40:52.327Z,51.323437
2023-01-27T09:41:52.208Z,51.323410
2023-01-27T09:42:52.241Z,51.323414
2023-01-27T09:43:52.216Z,51.323444
2023-01-27T09:44:52.271Z,51.323441
2023-01-27T09:45:53.165Z,51.323433
2023-01-27T09:46:52.087Z,51.323429
2023-01-27T09:47:52.090Z,51.323406
2023-01-27T09:48:52.045Z,51.323425
2023-01-27T09:49:52.023Z,51.323437
2023-01-27T09:50:52.009Z,51.323364
2023-01-27T09:51:52.000Z,51.323368
2023-01-27T09:52:51.999Z,51.323421
2023-01-27T09:53:51.953Z,51.323418
2023-01-27T09:54:51.934Z,51.323437
2023-01-27T09:55:51.918Z,51.323418
2023-01-27T09:56:51.902Z,51.323421
2023-01-27T09:57:51.902Z,51.323410
2023-01-27T09:58:51.856Z,51.323418
2023-01-27T09:59:51.841Z,51.323421
2023-01-27T10:00:51.876Z,51.323418
2023-01-27T10:01:51.829Z,51.323421
2023-01-27T10:02:51.811Z,51.323429
2023-01-27T10:03:51.771Z,51.323433
2023-01-27T10:04:51.844Z,51.323441
2023-01-27T10:05:51.724Z,51.323414
2023-01-27T10:06:51.710Z,51.323402
2023-01-27T10:07:51.721Z,51.323410
2023-01-27T10:08:51.677Z,51.323433
2023-01-27T10:09:51.656Z,51.323437
2023-01-27T10:10:51.635Z,51.323437
2023-01-27T10:11:51.614Z,51.323444
2023-01-27T10:12:51.627Z,51.323456
2023-01-27T10:13:51.578Z,51.323452
2023-01-27T10:14:51.561Z,51.323456
2023-01-27T10:15:51.608Z,51.323429
2023-01-27T10:16:51.518Z,51.323437
2023-01-27T10:17:51.527Z,51.323441
2023-01-27T10:18:51.483Z,51.323448
2023-01-27T10:19:51.458Z,51.323444
2023-01-27T10:20:51.449Z,51.323441
2023-01-27T10:21:51.426Z,51.323448
2023-01-27T10:22:51.433Z,51.323448
2023-01-27T10:23:51.518Z,51.323418
2023-01-27T10:24:51.368Z,51.323410
2023-01-27T10:25:51.373Z,51.323425
2023-01-27T10:26:51.332Z,51.323410
2023-01-27T10:27:51.350Z,51.323418
2023-01-27T10:28:51.305Z,51.323425
2023-01-27T10:29:51.277Z,51.323425
2023-01-27T10:30:51.320Z,51.323437
2023-01-27T10:31:51.254Z,51.323418
2023-01-27T10:32:51.245Z,51.323410
2023-01-27T10:33:51.199Z,51.323402
2023-01-27T10:34:51.185Z,51.323395
2023-01-27T10:35:51.162Z,51.323395
2023-01-27T10:36:51.145Z,51.323406
2023-01-27T10:37:51.148Z,51.323421
2023-01-27T10:38:51.125Z,51.323410
2023-01-27T10:39:51.091Z,51.323414
2023-01-27T10:40:51.070Z,51.323414
2023-01-27T10:41:51.051Z,51.323399
2023-01-27T10:42:51.062Z,51.323395
2023-01-27T10:43:51.016Z,51.323406
2023-01-27T10:44:50.997Z,51.323433
2023-01-27T10:45:51.017Z,51.323444
2023-01-27T10:46:50.980Z,51.323429
2023-01-27T10:47:50.998Z,51.323418
2023-01-27T10:48:50.923Z,51.323418
2023-01-27T10:49:50.920Z,51.323395
2023-01-27T10:50:50.892Z,51.323383
2023-01-27T10:51:50.870Z,51.323391
2023-01-27T10:52:50.879Z,51.323395
2023-01-27T10:53:50.825Z,51.323414
2023-01-27T10:54:50.808Z,51.323399
2023-01-27T10:55:50.791Z,51.323418
2023-01-27T10:56:50.769Z,51.323448
2023-01-27T10:57:50.788Z,51.323448
2023-01-27T10:58:50.734Z,51.323402
2023-01-27T11:00:13.928Z,51.323425
2023-01-27T11:01:20.887Z,51.323399
2023-01-27T11:01:52.736Z,51.323414
2023-01-27T11:02:50.690Z,51.323421
2023-01-27T11:03:50.646Z,51.323441
2023-01-27T11:04:50.616Z,51.323429
2023-01-27T11:05:51.600Z,51.323441
2023-01-27T11:06:50.585Z,51.323406
2023-01-27T11:07:50.588Z,51.323414
2023-01-27T11:08:50.545Z,51.323418
2023-01-27T11:09:50.536Z,51.323418
2023-01-27T11:10:50.521Z,51.323418
2023-01-27T11:11:50.502Z,51.323441
2023-01-27T11:12:50.503Z,51.323406
2023-01-27T11:13:50.448Z,51.323418
2023-01-27T11:14:50.444Z,51.323402
2023-01-27T11:15:50.415Z,51.323414
2023-01-27T11:16:50.463Z,51.323425
2023-01-27T11:17:50.404Z,51.323425
2023-01-27T11:18:50.388Z,51.323387
2023-01-27T11:19:50.337Z,51.323441
2023-01-27T11:20:50.320Z,51.323429
2023-01-27T11:22:01.632Z,51.323395
2023-01-27T11:22:52.286Z,51.323414
2023-01-27T11:23:50.309Z,51.323383